createdAt,value
2022-09-07T00:01:03.644Z,99.90
2022-09-07T00:03:30.499Z,99.90
2022-09-07T00:05:57.354Z,99.90
2022-09-07T00:08:25.341Z,99.90
2022-09-07T00:10:59.574Z,99.90
2022-09-07T00:13:27.689Z,99.90
2022-09-07T00:15:54.549Z,99.90
2022-09-07T00:18:21.403Z,99.90
2022-09-07T00:20:56.965Z,99.90
2022-09-07T00:23:23.716Z,99.90
2022-09-07T00:25:53.969Z,99.90
2022-09-07T00:28:21.028Z,99.90
2022-09-07T00:30:48.145Z,99.90
2022-09-07T00:33:15.092Z,99.90
2022-09-07T00:35:42.114Z,99.90
2022-09-07T00:38:08.996Z,99.90
2022-09-07T00:40:35.811Z,99.90
2022-09-07T00:43:02.616Z,99.90
2022-09-07T00:45:29.411Z,99.90
2022-09-07T00:48:06.581Z,99.90
2022-09-07T00:50:55.974Z,99.90
2022-09-07T00:53:46.962Z,99.90
2022-09-07T00:56:13.698Z,99.90
2022-09-07T00:58:41.981Z,99.90
2022-09-07T01:01:10.688Z,99.90
2022-09-07T01:03:42.396Z,99.90
2022-09-07T01:06:33.727Z,99.90
2022-09-07T01:09:05.609Z,99.90
2022-09-07T01:11:34.715Z,99.90
2022-09-07T01:14:01.477Z,99.90
2022-09-07T01:16:47.174Z,99.90
2022-09-07T01:19:44.494Z,99.90
2022-09-07T01:22:38.830Z,99.90
2022-09-07T01:25:14.543Z,99.90
2022-09-07T01:27:48.882Z,99.90
2022-09-07T01:30:17.652Z,99.90
2022-09-07T01:32:57.408Z,99.90
2022-09-07T01:35:30.060Z,99.90
2022-09-07T01:38:04.518Z,99.90
2022-09-07T01:40:40.686Z,99.90
2022-09-07T01:43:29.300Z,99.90
2022-09-07T01:45:56.140Z,99.90
2022-09-07T01:48:22.869Z,99.90
2022-09-07T01:51:01.678Z,99.90
2022-09-07T01:53:58.178Z,99.90
2022-09-07T01:56:31.748Z,99.90
2022-09-07T01:59:17.784Z,99.90
2022-09-07T02:01:48.662Z,99.90
2022-09-07T02:04:34.489Z,99.90
2022-09-07T02:07:05.273Z,99.90
2022-09-07T02:09:32.765Z,99.90
2022-09-07T02:12:02.994Z,99.90
2022-09-07T02:14:32.048Z,99.90
2022-09-07T02:17:06.853Z,99.90
2022-09-07T02:19:37.838Z,99.90
2022-09-07T02:22:07.708Z,99.90
2022-09-07T02:24:37.699Z,99.90
2022-09-07T02:27:12.435Z,99.90
2022-09-07T02:29:39.301Z,99.90
2022-09-07T02:32:06.185Z,99.90
2022-09-07T02:34:32.924Z,99.90
2022-09-07T02:37:00.847Z,99.90
2022-09-07T02:39:27.723Z,99.90
2022-09-07T02:41:54.423Z,99.90
2022-09-07T02:44:25.982Z,99.90
2022-09-07T02:47:01.576Z,99.90
2022-09-07T02:49:51.360Z,99.90
2022-09-07T02:52:40.428Z,99.90
2022-09-07T02:55:10.977Z,99.90
2022-09-07T02:58:10.386Z,99.90
2022-09-07T03:00:45.108Z,99.90
2022-09-07T03:03:31.221Z,99.90
2022-09-07T03:06:06.983Z,99.90
2022-09-07T03:08:39.822Z,99.90
2022-09-07T03:11:06.956Z,99.90
2022-09-07T03:13:33.812Z,99.90
2022-09-07T03:16:00.680Z,99.90
2022-09-07T03:18:27.849Z,99.90
2022-09-07T03:20:54.648Z,99.90
2022-09-07T03:23:21.383Z,99.90
2022-09-07T03:25:49.000Z,99.90
2022-09-07T03:28:16.266Z,99.90
2022-09-07T03:30:49.800Z,99.90
2022-09-07T03:33:16.722Z,99.90
2022-09-07T03:35:44.367Z,99.90
2022-09-07T03:38:11.090Z,99.90
2022-09-07T03:40:37.880Z,99.90
2022-09-07T03:43:05.113Z,99.90
2022-09-07T03:45:31.916Z,99.90
2022-09-07T03:47:58.940Z,99.90
2022-09-07T03:50:25.781Z,99.90
2022-09-07T03:52:52.491Z,99.90
2022-09-07T03:55:19.834Z,99.90
2022-09-07T03:57:46.565Z,99.90
2022-09-07T04:00:13.939Z,99.90
2022-09-07T04:02:40.767Z,99.90
2022-09-07T04:05:08.117Z,99.90
2022-09-07T04:07:34.940Z,99.90
2022-09-07T04:10:01.917Z,99.90
2022-09-07T04:12:28.621Z,99.90
2022-09-07T04:14:55.764Z,99.90
2022-09-07T04:17:22.476Z,99.90
2022-09-07T04:19:49.282Z,99.90
2022-09-07T04:22:16.010Z,99.90
2022-09-07T04:24:42.729Z,99.90
2022-09-07T04:27:09.471Z,99.90
2022-09-07T04:29:36.275Z,99.90
2022-09-07T04:32:02.980Z,99.90
2022-09-07T04:34:29.941Z,99.90
2022-09-07T04:36:56.694Z,99.90
2022-09-07T04:39:23.510Z,99.90
2022-09-07T04:41:50.231Z,99.90
2022-09-07T04:44:17.306Z,99.90
2022-09-07T04:46:44.071Z,99.90
2022-09-07T04:49:11.111Z,99.90
2022-09-07T04:51:38.612Z,99.90
2022-09-07T04:54:05.580Z,99.90
2022-09-07T04:56:32.605Z,99.90
2022-09-07T04:59:00.732Z,99.90
2022-09-07T05:01:27.493Z,99.90
2022-09-07T05:03:54.443Z,99.90
2022-09-07T05:06:22.751Z,99.90
2022-09-07T05:08:51.751Z,99.90
2022-09-07T05:11:18.934Z,99.90
2022-09-07T05:13:45.758Z,99.90
2022-09-07T05:16:20.645Z,99.90
2022-09-07T05:19:01.687Z,99.90
2022-09-07T05:21:30.022Z,99.90
2022-09-07T05:23:57.327Z,99.90
2022-09-07T05:26:25.412Z,99.90
2022-09-07T05:28:52.470Z,99.90
2022-09-07T05:31:26.468Z,99.90
2022-09-07T05:36:41.183Z,99.90
2022-09-07T05:39:08.481Z,99.90
2022-09-07T05:41:35.298Z,99.90
2022-09-07T05:46:48.937Z,99.90
2022-09-07T05:49:15.845Z,99.90
2022-09-07T05:51:42.541Z,99.90
2022-09-07T05:54:11.056Z,99.90
2022-09-07T05:56:37.805Z,99.90
2022-09-07T05:59:04.756Z,99.90
2022-09-07T06:01:31.753Z,99.90
2022-09-07T06:03:58.769Z,99.90
2022-09-07T06:06:25.494Z,99.90
2022-09-07T06:08:53.324Z,99.90
2022-09-07T06:11:21.631Z,99.90
2022-09-07T06:13:48.662Z,99.90
2022-09-07T06:16:15.999Z,99.90
2022-09-07T06:18:44.003Z,99.90
2022-09-07T06:21:20.057Z,99.90
2022-09-07T06:23:46.993Z,99.90
2022-09-07T06:26:14.569Z,99.90
2022-09-07T06:28:42.869Z,99.90
2022-09-07T06:31:14.039Z,99.90
2022-09-07T06:33:41.886Z,99.90
2022-09-07T06:36:13.208Z,99.90
2022-09-07T06:38:42.590Z,99.90
2022-09-07T06:44:01.188Z,99.90
2022-09-07T06:49:14.842Z,99.90
2022-09-07T06:51:41.590Z,99.90
2022-09-07T06:56:55.668Z,99.90
2022-09-07T06:59:22.365Z,99.90
2022-09-07T07:01:49.488Z,99.90
2022-09-07T07:04:16.325Z,99.90
2022-09-07T07:06:43.062Z,99.90
2022-09-07T07:09:11.350Z,99.90
2022-09-07T07:11:38.277Z,99.90
2022-09-07T07:14:05.058Z,99.90
2022-09-07T07:16:31.895Z,99.90
2022-09-07T07:18:58.633Z,99.90
2022-09-07T07:21:25.516Z,99.90
2022-09-07T07:23:52.770Z,99.90
2022-09-07T07:26:21.203Z,99.90
2022-09-07T07:29:04.997Z,99.90
2022-09-07T07:31:33.252Z,99.90
2022-09-07T07:34:00.092Z,99.90
2022-09-07T07:36:27.413Z,99.90
2022-09-07T07:44:14.352Z,99.90
2022-09-07T07:46:41.195Z,99.90
2022-09-07T07:49:07.889Z,99.90
2022-09-07T07:52:49.839Z,99.90
2022-09-07T07:54:21.476Z,99.90
2022-09-07T07:56:48.275Z,99.90
2022-09-07T07:59:15.955Z,99.90
2022-09-07T08:01:43.915Z,99.90
2022-09-07T08:04:10.688Z,99.90
2022-09-07T08:06:41.448Z,99.90
2022-09-07T08:09:08.370Z,99.90
2022-09-07T08:11:35.489Z,99.90
2022-09-07T08:14:05.850Z,99.90
2022-09-07T08:16:34.035Z,99.90
2022-09-07T08:19:01.635Z,99.90
2022-09-07T08:21:28.368Z,99.90
2022-09-07T08:23:55.530Z,99.90
2022-09-07T08:26:22.247Z,99.90
2022-09-07T08:28:48.948Z,99.90
2022-09-07T08:31:16.871Z,99.90
2022-09-07T08:33:43.729Z,99.90
2022-09-07T08:36:18.440Z,99.90
2022-09-07T08:38:45.412Z,99.90
2022-09-07T08:41:49.972Z,99.90
2022-09-07T08:44:21.321Z,99.90
2022-09-07T08:47:12.568Z,99.90
2022-09-07T08:50:02.590Z,99.90
2022-09-07T08:52:56.529Z,99.90
2022-09-07T08:55:23.463Z,99.90
2022-09-07T08:58:27.048Z,99.90
2022-09-07T09:06:37.852Z,99.90
2022-09-07T09:09:26.146Z,99.90
2022-09-07T09:12:07.246Z,99.90
2022-09-07T09:15:02.766Z,99.90
2022-09-07T09:17:35.639Z,99.90
2022-09-07T09:20:21.315Z,99.90
2022-09-07T09:22:48.064Z,99.90
2022-09-07T09:25:33.393Z,99.90
2022-09-07T09:28:00.274Z,99.90
2022-09-07T09:30:28.201Z,99.90
2022-09-07T09:33:15.427Z,99.90
2022-09-07T09:35:42.493Z,99.90
2022-09-07T09:38:35.469Z,99.90
2022-09-07T09:41:14.896Z,99.90
2022-09-07T09:43:48.816Z,99.90
2022-09-07T09:46:28.841Z,99.90
2022-09-07T09:49:20.580Z,99.90
2022-09-07T09:54:42.083Z,99.90
2022-09-07T09:57:31.928Z,99.90
2022-09-07T10:00:05.539Z,99.90
2022-09-07T10:05:41.552Z,99.90
2022-09-07T10:08:28.776Z,99.90
2022-09-07T10:11:03.910Z,99.90
2022-09-07T10:13:35.302Z,99.90
2022-09-07T10:16:06.589Z,99.90
2022-09-07T10:18:40.544Z,99.90
2022-09-07T10:21:27.902Z,99.90
2022-09-07T10:24:04.522Z,99.90
2022-09-07T10:26:35.726Z,99.90
2022-09-07T10:29:28.689Z,99.90
2022-09-07T10:32:14.443Z,99.90
2022-09-07T10:35:35.624Z,99.90
2022-09-07T10:38:09.800Z,99.90
2022-09-07T10:41:05.909Z,99.90
2022-09-07T10:43:46.538Z,99.90
2022-09-07T10:49:12.661Z,99.90
2022-09-07T10:52:00.969Z,99.90
2022-09-07T10:54:36.652Z,99.90
2022-09-07T10:57:16.043Z,99.90
2022-09-07T11:05:52.947Z,99.90
2022-09-07T11:08:27.402Z,99.90
2022-09-07T11:11:06.869Z,99.90
2022-09-07T11:13:55.474Z,99.90
2022-09-07T11:19:37.870Z,99.90
2022-09-07T11:22:39.988Z,99.90
2022-09-07T11:25:29.599Z,99.90
2022-09-07T11:27:57.495Z,99.90
2022-09-07T11:30:26.838Z,99.90
2022-09-07T11:33:14.163Z,99.90
2022-09-07T11:35:45.421Z,99.90
2022-09-07T11:38:23.570Z,99.90
2022-09-07T11:41:15.905Z,99.90
2022-09-07T11:43:48.175Z,99.90
2022-09-07T11:46:22.856Z,99.90
2022-09-07T11:48:55.251Z,99.90
2022-09-07T11:51:35.316Z,99.90
2022-09-07T11:54:13.353Z,99.90
2022-09-07T11:56:45.665Z,99.90
2022-09-07T11:59:18.967Z,99.90
2022-09-07T12:02:13.866Z,99.90
2022-09-07T12:04:46.729Z,99.90
2022-09-07T12:07:22.744Z,99.90
2022-09-07T12:10:07.512Z,99.90
2022-09-07T12:12:54.140Z,99.90
2022-09-07T12:15:35.966Z,99.90
2022-09-07T12:18:27.231Z,99.90
2022-09-07T12:20:54.709Z,99.90
2022-09-07T12:23:30.343Z,99.90
2022-09-07T12:26:34.626Z,99.90
2022-09-07T12:29:01.225Z,99.90
2022-09-07T12:34:35.098Z,99.90
2022-09-07T12:37:22.940Z,99.90
2022-09-07T12:39:50.228Z,99.90
2022-09-07T12:42:32.514Z,99.90
2022-09-07T12:45:30.924Z,99.90
2022-09-07T12:47:59.112Z,99.90
2022-09-07T12:50:28.646Z,99.90
2022-09-07T12:53:14.084Z,99.90
2022-09-07T12:59:16.002Z,99.90
2022-09-07T13:02:12.043Z,99.90
2022-09-07T13:04:41.553Z,99.90
2022-09-07T13:07:29.934Z,99.90
2022-09-07T13:10:00.150Z,99.90
2022-09-07T13:15:52.212Z,99.90
2022-09-07T13:18:28.191Z,99.90
2022-09-07T13:21:07.171Z,99.90
2022-09-07T13:23:34.595Z,99.90
2022-09-07T13:26:01.880Z,99.90
2022-09-07T13:28:48.213Z,99.90
2022-09-07T13:31:24.083Z,99.90
2022-09-07T13:33:51.685Z,99.90
2022-09-07T13:36:33.909Z,99.90
2022-09-07T13:39:00.691Z,99.90
2022-09-07T13:41:41.058Z,99.90
2022-09-07T13:44:11.864Z,99.90
2022-09-07T13:46:50.576Z,99.90
2022-09-07T13:49:58.879Z,99.90
2022-09-07T13:52:31.405Z,99.90
2022-09-07T13:55:14.212Z,99.90
2022-09-07T13:57:53.180Z,99.90
2022-09-07T14:00:20.136Z,99.90
2022-09-07T14:02:56.783Z,99.90
2022-09-07T14:05:24.079Z,99.90
2022-09-07T14:07:50.777Z,99.90
2022-09-07T14:10:21.523Z,99.90
2022-09-07T14:13:14.109Z,99.90
2022-09-07T14:15:47.467Z,99.90
2022-09-07T14:18:14.904Z,99.90
2022-09-07T14:20:51.447Z,96.70
2022-09-07T14:23:31.245Z,99.70
2022-09-07T14:26:18.574Z,96.20
2022-09-07T14:28:47.184Z,97.70
2022-09-07T14:31:15.433Z,99.50
2022-09-07T14:33:58.719Z,99.90
2022-09-07T14:36:46.463Z,98.80
2022-09-07T14:39:14.314Z,98.40
2022-09-07T14:41:42.057Z,99.30
2022-09-07T14:44:27.502Z,99.90
2022-09-07T14:46:56.762Z,97.40
2022-09-07T14:49:24.264Z,99.70
2022-09-07T14:51:51.024Z,99.90
2022-09-07T14:54:22.759Z,99.90
2022-09-07T14:57:23.673Z,99.90
2022-09-07T14:59:50.504Z,99.90
2022-09-07T15:02:26.308Z,99.90
2022-09-07T15:05:14.781Z,99.90
2022-09-07T15:07:45.529Z,99.90
2022-09-07T15:10:25.648Z,99.90
2022-09-07T15:12:59.549Z,99.90
2022-09-07T15:15:37.402Z,98.40
2022-09-07T15:18:08.992Z,97.80
2022-09-07T15:20:40.441Z,99.90
2022-09-07T15:23:17.940Z,99.30
2022-09-07T15:25:50.899Z,99.80
2022-09-07T15:34:09.849Z,99.90
2022-09-07T15:36:37.329Z,99.90
2022-09-07T15:39:04.431Z,99.90
2022-09-07T15:41:31.432Z,99.90
2022-09-07T15:43:58.653Z,99.90
2022-09-07T15:46:27.186Z,99.90
2022-09-07T15:48:54.812Z,99.90
2022-09-07T15:54:12.740Z,99.90
2022-09-07T15:56:42.337Z,99.90
2022-09-07T15:59:09.497Z,99.90
2022-09-07T16:01:52.176Z,99.90
2022-09-07T16:04:19.770Z,98.80
2022-09-07T16:06:48.146Z,96.70
2022-09-07T16:09:15.522Z,95.50
2022-09-07T16:11:42.358Z,94.80
2022-09-07T16:14:11.804Z,93.40
2022-09-07T16:19:25.190Z,93.20
2022-09-07T16:21:51.933Z,93.70
2022-09-07T16:24:18.745Z,94.30
2022-09-07T16:26:45.505Z,94.90
2022-09-07T16:29:12.375Z,95.10
2022-09-07T16:32:43.930Z,95.80
2022-09-07T16:34:25.966Z,96.50
2022-09-07T16:36:52.679Z,96.20
2022-09-07T16:39:20.345Z,96.70
2022-09-07T16:41:47.243Z,97.30
2022-09-07T16:44:14.375Z,96.90
2022-09-07T16:46:41.112Z,96.10
2022-09-07T16:49:07.873Z,95.70
2022-09-07T16:51:34.625Z,94.20
2022-09-07T16:54:01.377Z,92.60
2022-09-07T16:56:29.404Z,93.20
2022-09-07T16:58:57.887Z,93.70
2022-09-07T17:01:26.755Z,92.60
2022-09-07T17:03:53.723Z,91.90
2022-09-07T17:06:21.720Z,91.40
2022-09-07T17:08:48.727Z,91.30
2022-09-07T17:11:18.902Z,91.90
2022-09-07T17:13:45.782Z,92.00
2022-09-07T17:16:14.227Z,93.10
2022-09-07T17:21:46.577Z,94.40
2022-09-07T17:24:13.370Z,95.50
2022-09-07T17:26:42.221Z,96.80
2022-09-07T17:29:09.596Z,98.00
2022-09-07T17:34:23.617Z,99.90
2022-09-07T17:36:50.603Z,99.90
2022-09-07T17:39:19.114Z,99.90
2022-09-07T17:41:47.620Z,99.90
2022-09-07T17:44:14.969Z,99.90
2022-09-07T17:46:41.753Z,99.90
2022-09-07T17:49:16.485Z,99.90
2022-09-07T17:51:43.713Z,99.90
2022-09-07T17:54:13.549Z,99.90
2022-09-07T17:56:41.032Z,99.90
2022-09-07T18:01:55.074Z,99.90
2022-09-07T18:04:22.132Z,99.90
2022-09-07T18:06:49.021Z,99.90
2022-09-07T18:09:15.849Z,99.90
2022-09-07T18:11:45.767Z,99.90
2022-09-07T18:14:14.559Z,99.90
2022-09-07T18:16:42.067Z,99.90
2022-09-07T18:19:09.969Z,99.90
2022-09-07T18:21:37.131Z,99.90
2022-09-07T18:24:13.498Z,99.90
2022-09-07T18:26:41.030Z,99.90
2022-09-07T18:29:27.231Z,99.90
2022-09-07T18:32:01.789Z,99.90
2022-09-07T18:34:45.794Z,99.90
2022-09-07T18:37:15.436Z,99.90
2022-09-07T18:39:44.097Z,99.90
2022-09-07T18:42:11.119Z,99.90
2022-09-07T18:47:28.729Z,99.90
2022-09-07T18:49:56.255Z,99.90
2022-09-07T18:55:10.113Z,99.90
2022-09-07T18:57:37.247Z,99.90
2022-09-07T19:00:06.114Z,99.90
2022-09-07T19:02:33.520Z,99.90
2022-09-07T19:07:47.035Z,99.90
2022-09-07T19:10:14.723Z,99.90
2022-09-07T19:12:45.503Z,99.90
2022-09-07T19:15:12.849Z,99.90
2022-09-07T19:17:39.565Z,99.90
2022-09-07T19:20:06.704Z,99.90
2022-09-07T19:22:33.474Z,99.90
2022-09-07T19:25:00.320Z,99.90
2022-09-07T19:27:27.814Z,99.90
2022-09-07T19:29:54.760Z,99.90
2022-09-07T19:32:21.952Z,99.90
2022-09-07T19:34:54.349Z,99.90
2022-09-07T19:37:25.769Z,99.90
2022-09-07T19:39:55.157Z,99.90
2022-09-07T19:42:22.574Z,99.90
2022-09-07T19:44:49.772Z,99.90
2022-09-07T19:47:16.603Z,99.90
2022-09-07T19:49:43.365Z,99.90
2022-09-07T19:52:10.081Z,99.90
2022-09-07T19:54:37.174Z,99.90
2022-09-07T19:57:05.086Z,99.90
2022-09-07T19:59:32.123Z,99.90
2022-09-07T20:01:58.900Z,99.90
2022-09-07T20:04:25.710Z,99.90
2022-09-07T20:06:52.486Z,99.90
2022-09-07T20:09:19.960Z,99.90
2022-09-07T20:11:47.784Z,99.90
2022-09-07T20:14:15.463Z,99.90
2022-09-07T20:16:42.313Z,99.90
2022-09-07T20:19:11.562Z,99.90
2022-09-07T20:21:38.428Z,99.90
2022-09-07T20:24:05.715Z,99.90
2022-09-07T20:26:32.733Z,99.90
2022-09-07T20:29:16.679Z,99.90
2022-09-07T20:31:46.818Z,99.90
2022-09-07T20:34:13.758Z,99.90
2022-09-07T20:36:40.635Z,99.90
2022-09-07T20:39:07.513Z,99.90
2022-09-07T20:41:34.568Z,99.90
2022-09-07T20:44:02.615Z,99.90
2022-09-07T20:46:30.281Z,99.90
2022-09-07T20:48:57.246Z,99.90
2022-09-07T20:51:24.207Z,99.90
2022-09-07T20:53:51.222Z,99.90
2022-09-07T20:56:25.509Z,99.90
2022-09-07T20:58:57.192Z,99.90
2022-09-07T21:01:24.179Z,99.90
2022-09-07T21:03:52.599Z,99.90
2022-09-07T21:06:19.757Z,99.90
2022-09-07T21:08:47.106Z,99.90
2022-09-07T21:11:20.210Z,99.90
2022-09-07T21:13:47.083Z,99.90
2022-09-07T21:16:16.775Z,99.90
2022-09-07T21:18:44.097Z,99.90
2022-09-07T21:21:20.331Z,99.90
2022-09-07T21:23:47.974Z,99.90
2022-09-07T21:26:14.771Z,99.90
2022-09-07T21:28:41.601Z,99.90
2022-09-07T21:31:09.043Z,99.90
2022-09-07T21:33:36.319Z,99.90
2022-09-07T21:36:10.528Z,99.90
2022-09-07T21:38:37.656Z,99.90
2022-09-07T21:41:08.050Z,99.90
2022-09-07T21:43:34.897Z,99.90
2022-09-07T21:46:08.348Z,99.90
2022-09-07T21:48:35.274Z,99.90
2022-09-07T21:51:02.016Z,99.90
2022-09-07T21:53:28.880Z,99.90
2022-09-07T21:56:00.063Z,99.90
2022-09-07T21:58:27.428Z,99.90
2022-09-07T22:00:54.487Z,99.90
2022-09-07T22:03:21.845Z,99.90
2022-09-07T22:05:48.570Z,99.90
2022-09-07T22:08:15.430Z,99.90
2022-09-07T22:10:42.786Z,99.90
2022-09-07T22:13:09.790Z,99.90
2022-09-07T22:15:37.684Z,99.90
2022-09-07T22:18:05.032Z,99.90
2022-09-07T22:20:32.509Z,99.90
2022-09-07T22:22:59.429Z,99.90
2022-09-07T22:25:26.502Z,99.90
2022-09-07T22:27:53.685Z,99.90
2022-09-07T22:30:20.465Z,99.90
2022-09-07T22:32:47.876Z,99.90
2022-09-07T22:35:15.428Z,99.90
2022-09-07T22:37:42.143Z,99.90
2022-09-07T22:40:09.285Z,99.90
2022-09-07T22:42:36.065Z,99.90
2022-09-07T22:45:02.983Z,99.90
2022-09-07T22:47:29.733Z,99.90
2022-09-07T22:49:56.447Z,99.90
2022-09-07T22:52:23.208Z,99.90
2022-09-07T22:54:49.928Z,99.90
2022-09-07T22:57:16.621Z,99.90
2022-09-07T22:59:44.068Z,99.90
2022-09-07T23:02:10.789Z,99.90
2022-09-07T23:04:37.592Z,99.90
2022-09-07T23:07:06.552Z,99.90
2022-09-07T23:09:33.246Z,99.90
2022-09-07T23:12:00.152Z,99.90
2022-09-07T23:14:26.868Z,99.90
2022-09-07T23:16:53.626Z,99.90
2022-09-07T23:19:20.771Z,99.90
2022-09-07T23:21:47.521Z,99.90
2022-09-07T23:24:15.872Z,99.90
2022-09-07T23:26:42.952Z,99.90
2022-09-07T23:29:10.755Z,99.90
2022-09-07T23:31:37.739Z,99.90
2022-09-07T23:34:04.527Z,99.90
2022-09-07T23:36:31.321Z,99.90
2022-09-07T23:38:58.646Z,99.90
2022-09-07T23:41:25.706Z,99.90
2022-09-07T23:43:53.141Z,99.90
2022-09-07T23:46:19.975Z,99.90
2022-09-07T23:48:47.138Z,99.90
2022-09-07T23:51:14.067Z,99.90
2022-09-07T23:53:41.178Z,99.90
2022-09-07T23:56:07.951Z,99.90
2022-09-07T23:58:34.659Z,99.90
